createdAt,value
2022-09-03T00:02:19.277Z,1.05
2022-09-03T00:05:05.279Z,1.23
2022-09-03T00:07:49.487Z,1.13
2022-09-03T00:10:27.485Z,0.80
2022-09-03T00:13:00.694Z,1.10
2022-09-03T00:15:28.786Z,0.98
2022-09-03T00:18:16.193Z,1.33
2022-09-03T00:20:49.191Z,1.23
2022-09-03T00:23:22.826Z,1.20
2022-09-03T00:25:56.208Z,1.15
2022-09-03T00:28:30.184Z,1.13
2022-09-03T00:31:11.154Z,1.00
2022-09-03T00:33:40.138Z,1.38
2022-09-03T00:36:44.536Z,1.15
2022-09-03T00:39:17.116Z,1.08
2022-09-03T00:41:59.983Z,1.50
2022-09-03T00:44:56.768Z,1.13
2022-09-03T00:47:38.497Z,0.95
2022-09-03T00:50:33.153Z,0.90
2022-09-03T00:53:23.025Z,1.38
2022-09-03T00:56:11.322Z,1.60
2022-09-03T00:59:00.099Z,1.20
2022-09-03T01:01:38.943Z,1.10
2022-09-03T01:04:24.436Z,1.15
2022-09-03T01:07:34.086Z,0.98
2022-09-03T01:10:38.630Z,1.00
2022-09-03T01:13:33.850Z,1.20
2022-09-03T01:16:32.728Z,1.00
2022-09-03T01:19:38.875Z,1.00
2022-09-03T01:22:30.866Z,1.17
2022-09-03T01:25:12.330Z,1.20
2022-09-03T01:27:47.129Z,1.20
2022-09-03T01:30:24.089Z,1.30
2022-09-03T01:35:38.606Z,1.10
2022-09-03T01:38:34.971Z,1.30
2022-09-03T01:41:30.202Z,1.20
2022-09-03T01:44:23.752Z,1.10
2022-09-03T01:47:06.688Z,1.13
2022-09-03T01:50:05.261Z,1.30
2022-09-03T01:52:48.003Z,1.30
2022-09-03T01:55:57.925Z,1.20
2022-09-03T01:58:36.005Z,1.00
2022-09-03T02:01:09.633Z,1.55
2022-09-03T02:03:41.418Z,1.20
2022-09-03T02:06:10.655Z,1.17
2022-09-03T02:08:38.138Z,1.08
2022-09-03T02:11:08.634Z,1.20
2022-09-03T02:13:44.666Z,1.10
2022-09-03T02:16:16.832Z,1.00
2022-09-03T02:18:48.635Z,0.98
2022-09-03T02:21:20.439Z,1.33
2022-09-03T02:23:48.354Z,1.10
2022-09-03T02:26:19.141Z,1.15
2022-09-03T02:28:46.053Z,1.25
2022-09-03T02:31:12.833Z,1.23
2022-09-03T02:33:42.621Z,1.20
2022-09-03T02:36:11.648Z,1.20
2022-09-03T02:38:41.030Z,1.05
2022-09-03T02:41:08.187Z,1.10
2022-09-03T02:43:42.313Z,1.30
2022-09-03T02:46:14.019Z,1.10
2022-09-03T02:48:40.899Z,1.00
2022-09-03T02:51:14.281Z,1.42
2022-09-03T02:53:41.947Z,1.30
2022-09-03T02:56:08.670Z,1.40
2022-09-03T02:58:35.381Z,1.40
2022-09-03T03:01:02.776Z,1.30
2022-09-03T03:03:29.954Z,1.10
2022-09-03T03:06:00.416Z,1.52
2022-09-03T03:08:28.958Z,1.10
2022-09-03T03:10:58.808Z,1.00
2022-09-03T03:13:30.307Z,1.27
2022-09-03T03:15:59.063Z,1.40
2022-09-03T03:18:25.995Z,1.40
2022-09-03T03:20:52.821Z,1.50
2022-09-03T03:23:19.591Z,1.30
2022-09-03T03:25:46.561Z,1.23
2022-09-03T03:28:13.793Z,1.50
2022-09-03T03:30:42.734Z,1.20
2022-09-03T03:33:10.314Z,1.33
2022-09-03T03:35:37.208Z,1.10
2022-09-03T03:38:04.435Z,1.15
2022-09-03T03:40:31.376Z,1.30
2022-09-03T03:42:58.750Z,1.45
2022-09-03T03:45:25.527Z,1.17
2022-09-03T03:47:52.572Z,1.50
2022-09-03T03:50:19.570Z,1.30
2022-09-03T03:52:46.285Z,1.20
2022-09-03T03:55:13.004Z,1.30
2022-09-03T03:57:42.669Z,1.30
2022-09-03T04:00:09.894Z,1.10
2022-09-03T04:02:42.351Z,1.23
2022-09-03T04:05:09.454Z,1.35
2022-09-03T04:07:37.177Z,1.45
2022-09-03T04:10:04.194Z,1.30
2022-09-03T04:12:30.882Z,1.20
2022-09-03T04:14:57.511Z,1.25
2022-09-03T04:17:25.356Z,1.30
2022-09-03T04:19:52.244Z,1.38
2022-09-03T04:22:20.636Z,1.30
2022-09-03T04:24:47.381Z,1.60
2022-09-03T04:27:14.037Z,1.50
2022-09-03T04:29:40.872Z,1.40
2022-09-03T04:32:26.818Z,1.45
2022-09-03T04:34:53.779Z,1.70
2022-09-03T04:37:20.607Z,1.80
2022-09-03T04:39:47.383Z,1.58
2022-09-03T04:42:14.134Z,1.60
2022-09-03T04:44:41.219Z,1.60
2022-09-03T04:47:07.983Z,1.50
2022-09-03T04:49:34.769Z,1.60
2022-09-03T04:52:02.615Z,1.65
2022-09-03T04:54:29.624Z,1.40
2022-09-03T04:56:56.721Z,1.40
2022-09-03T04:59:23.375Z,1.30
2022-09-03T05:01:52.512Z,1.67
2022-09-03T05:04:19.731Z,1.40
2022-09-03T05:06:46.511Z,1.45
2022-09-03T05:09:13.212Z,1.30
2022-09-03T05:11:39.921Z,1.33
2022-09-03T05:14:06.767Z,1.48
2022-09-03T05:16:33.442Z,1.35
2022-09-03T05:19:01.009Z,1.42
2022-09-03T05:21:28.653Z,1.40
2022-09-03T05:23:55.674Z,1.50
2022-09-03T05:26:28.341Z,1.33
2022-09-03T05:28:57.518Z,1.40
2022-09-03T05:31:26.747Z,1.42
2022-09-03T05:33:58.583Z,1.48
2022-09-03T05:36:30.890Z,1.40
2022-09-03T05:38:59.105Z,1.35
2022-09-03T05:41:27.318Z,1.55
2022-09-03T05:43:55.884Z,1.70
2022-09-03T05:46:30.139Z,1.27
2022-09-03T05:49:01.167Z,1.45
2022-09-03T05:51:29.057Z,1.42
2022-09-03T05:53:55.919Z,1.55
2022-09-03T05:56:25.054Z,1.45
2022-09-03T05:58:54.041Z,1.52
2022-09-03T06:01:29.347Z,1.33
2022-09-03T06:04:07.443Z,1.35
2022-09-03T06:06:36.565Z,1.48
2022-09-03T06:09:06.047Z,1.17
2022-09-03T06:11:34.758Z,1.50
2022-09-03T06:14:04.995Z,1.40
2022-09-03T06:16:33.458Z,1.45
2022-09-03T06:19:00.775Z,1.48
2022-09-03T06:21:28.159Z,1.42
2022-09-03T06:23:56.966Z,1.80
2022-09-03T06:26:29.225Z,1.83
2022-09-03T06:28:57.359Z,1.40
2022-09-03T06:31:25.319Z,1.67
2022-09-03T06:33:58.557Z,1.38
2022-09-03T06:36:27.987Z,1.40
2022-09-03T06:38:55.995Z,1.40
2022-09-03T06:41:25.487Z,1.80
2022-09-03T06:44:03.203Z,1.60
2022-09-03T06:46:32.878Z,1.60
2022-09-03T06:49:00.345Z,1.60
2022-09-03T06:51:32.943Z,1.40
2022-09-03T06:54:01.974Z,1.60
2022-09-03T06:56:29.189Z,1.52
2022-09-03T06:59:00.245Z,1.50
2022-09-03T07:01:32.307Z,1.50
2022-09-03T07:04:01.433Z,1.40
2022-09-03T07:06:30.734Z,1.63
2022-09-03T07:08:59.105Z,1.58
2022-09-03T07:11:31.286Z,1.67
2022-09-03T07:13:58.707Z,1.73
2022-09-03T07:16:27.972Z,1.55
2022-09-03T07:18:55.817Z,1.58
2022-09-03T07:21:25.310Z,1.65
2022-09-03T07:23:53.734Z,1.83
2022-09-03T07:26:23.718Z,1.83
2022-09-03T07:28:51.603Z,2.00
2022-09-03T07:31:22.624Z,1.70
2022-09-03T07:33:49.514Z,1.40
2022-09-03T07:36:17.421Z,1.35
2022-09-03T07:38:45.754Z,1.48
2022-09-03T07:41:19.326Z,1.60
2022-09-03T07:43:55.645Z,1.60
2022-09-03T07:46:27.636Z,1.63
2022-09-03T07:48:56.790Z,1.63
2022-09-03T07:51:29.693Z,1.70
2022-09-03T07:53:58.430Z,1.75
2022-09-03T07:56:26.891Z,1.42
2022-09-03T07:58:56.803Z,1.15
2022-09-03T08:01:25.609Z,1.50
2022-09-03T08:03:56.129Z,1.58
2022-09-03T08:06:25.766Z,1.40
2022-09-03T08:09:05.113Z,1.20
2022-09-03T08:11:35.221Z,1.65
2022-09-03T08:14:07.383Z,1.60
2022-09-03T08:16:37.067Z,1.50
2022-09-03T08:19:06.701Z,1.80
2022-09-03T08:21:33.685Z,1.40
2022-09-03T08:24:03.234Z,1.63
2022-09-03T08:26:35.952Z,1.65
2022-09-03T08:29:03.512Z,1.50
2022-09-03T08:31:32.258Z,1.60
2022-09-03T08:34:03.164Z,3.72
2022-09-03T08:36:31.107Z,1.85
2022-09-03T08:39:09.598Z,1.65
2022-09-03T08:41:53.457Z,1.60
2022-09-03T08:44:48.677Z,1.40
2022-09-03T08:47:34.734Z,1.60
2022-09-03T08:50:27.608Z,1.40
2022-09-03T08:53:06.308Z,1.60
2022-09-03T08:55:44.903Z,1.65
2022-09-03T08:58:19.384Z,1.40
2022-09-03T09:01:11.424Z,1.98
2022-09-03T09:03:56.851Z,1.30
2022-09-03T09:06:35.998Z,1.50
2022-09-03T09:09:23.650Z,1.20
2022-09-03T09:12:28.049Z,1.35
2022-09-03T09:15:29.778Z,1.40
2022-09-03T09:18:19.284Z,1.40
2022-09-03T09:20:56.547Z,1.40
2022-09-03T09:23:31.055Z,1.60
2022-09-03T09:26:01.222Z,1.30
2022-09-03T09:28:37.643Z,1.20
2022-09-03T09:31:12.437Z,1.40
2022-09-03T09:33:39.189Z,1.52
2022-09-03T09:36:09.853Z,1.40
2022-09-03T09:38:39.003Z,1.40
2022-09-03T09:41:16.693Z,1.38
2022-09-03T09:43:43.901Z,1.20
2022-09-03T09:46:16.738Z,1.30
2022-09-03T09:48:56.521Z,1.52
2022-09-03T09:51:26.442Z,1.88
2022-09-03T09:54:20.019Z,1.20
2022-09-03T09:56:58.339Z,1.77
2022-09-03T09:59:25.040Z,1.65
2022-09-03T10:01:51.778Z,1.70
2022-09-03T10:04:33.242Z,2.13
2022-09-03T10:07:22.861Z,1.60
2022-09-03T10:10:03.153Z,1.20
2022-09-03T10:12:44.308Z,1.40
2022-09-03T10:15:27.471Z,1.50
2022-09-03T10:18:32.076Z,1.05
2022-09-03T10:21:06.555Z,1.60
2022-09-03T10:24:02.590Z,1.65
2022-09-03T10:26:33.090Z,1.30
2022-09-03T10:29:02.513Z,1.13
2022-09-03T10:32:07.354Z,1.30
2022-09-03T10:34:57.115Z,1.50
2022-09-03T10:37:53.765Z,1.45
2022-09-03T10:40:39.026Z,1.20
2022-09-03T10:43:32.542Z,1.10
2022-09-03T10:46:06.411Z,1.52
2022-09-03T10:49:02.701Z,1.73
2022-09-03T10:51:36.463Z,1.40
2022-09-03T10:54:11.788Z,1.55
2022-09-03T10:57:01.474Z,1.67
2022-09-03T10:59:48.938Z,1.40
2022-09-03T11:02:50.285Z,1.38
2022-09-03T11:05:45.426Z,1.40
2022-09-03T11:08:17.861Z,1.20
2022-09-03T11:10:54.838Z,1.35
2022-09-03T11:13:26.657Z,1.40
2022-09-03T11:16:18.983Z,1.50
2022-09-03T11:18:53.787Z,1.00
2022-09-03T11:21:25.832Z,1.38
2022-09-03T11:24:04.973Z,1.23
2022-09-03T11:26:35.511Z,1.30
2022-09-03T11:29:25.981Z,1.45
2022-09-03T11:32:02.495Z,1.20
2022-09-03T11:34:33.104Z,1.40
2022-09-03T11:37:19.066Z,1.10
2022-09-03T11:39:57.712Z,1.30
2022-09-03T11:42:45.163Z,1.50
2022-09-03T11:45:23.056Z,1.23
2022-09-03T11:47:50.833Z,1.30
2022-09-03T11:50:22.867Z,1.80
2022-09-03T11:52:53.402Z,1.50
2022-09-03T11:55:38.270Z,1.40
2022-09-03T11:58:31.321Z,1.27
2022-09-03T12:01:01.283Z,1.30
2022-09-03T12:03:37.216Z,1.48
2022-09-03T12:06:36.297Z,1.25
2022-09-03T12:09:13.814Z,1.55
2022-09-03T12:12:18.282Z,1.55
2022-09-03T12:15:03.398Z,1.60
2022-09-03T12:18:13.836Z,1.27
2022-09-03T12:20:41.899Z,1.38
2022-09-03T12:23:11.816Z,1.42
2022-09-03T12:25:48.757Z,2.00
2022-09-03T12:28:23.435Z,1.52
2022-09-03T12:30:53.268Z,3.47
2022-09-03T12:33:23.679Z,1.52
2022-09-03T12:36:03.942Z,1.40
2022-09-03T12:38:44.440Z,1.42
2022-09-03T12:41:26.736Z,1.55
2022-09-03T12:44:13.026Z,1.45
2022-09-03T12:46:40.083Z,1.55
2022-09-03T12:52:28.679Z,1.30
2022-09-03T12:55:01.275Z,1.30
2022-09-03T12:57:46.513Z,1.45
2022-09-03T13:00:18.741Z,1.65
2022-09-03T13:03:12.094Z,1.40
2022-09-03T13:05:51.095Z,1.48
2022-09-03T13:08:29.676Z,1.38
2022-09-03T13:10:59.431Z,1.23
2022-09-03T13:13:35.441Z,1.30
2022-09-03T13:16:20.617Z,1.40
2022-09-03T13:19:03.963Z,1.52
2022-09-03T13:21:50.293Z,1.27
2022-09-03T13:24:53.122Z,1.52
2022-09-03T13:27:47.141Z,1.20
2022-09-03T13:30:17.478Z,1.33
2022-09-03T13:33:09.347Z,1.30
2022-09-03T13:35:46.509Z,1.50
2022-09-03T13:38:43.922Z,1.27
2022-09-03T13:41:37.207Z,1.45
2022-09-03T13:44:35.718Z,1.30
2022-09-03T13:47:24.714Z,1.45
2022-09-03T13:50:25.305Z,1.50
2022-09-03T13:53:08.225Z,1.25
2022-09-03T13:55:43.676Z,1.83
2022-09-03T13:58:30.746Z,1.30
2022-09-03T14:03:58.640Z,1.13
2022-09-03T14:06:39.709Z,1.73
2022-09-03T14:09:18.561Z,1.33
2022-09-03T14:12:02.733Z,1.45
2022-09-03T14:14:38.943Z,1.58
2022-09-03T14:17:19.946Z,1.35
2022-09-03T14:20:24.397Z,1.60
2022-09-03T14:22:57.741Z,1.70
2022-09-03T14:25:26.718Z,1.60
2022-09-03T14:27:55.536Z,1.60
2022-09-03T14:30:38.418Z,1.40
2022-09-03T14:33:17.205Z,1.45
2022-09-03T14:36:11.920Z,1.30
2022-09-03T14:38:46.834Z,1.38
2022-09-03T14:41:13.441Z,1.38
2022-09-03T14:44:07.416Z,1.40
2022-09-03T14:46:46.287Z,1.83
2022-09-03T14:49:38.173Z,1.50
2022-09-03T14:52:32.993Z,1.50
2022-09-03T14:55:20.474Z,1.15
2022-09-03T14:58:23.398Z,1.45
2022-09-03T15:01:03.087Z,1.40
2022-09-03T15:04:00.783Z,1.45
2022-09-03T15:06:50.026Z,1.63
2022-09-03T15:09:30.770Z,1.52
2022-09-03T15:12:29.067Z,1.60
2022-09-03T15:14:57.803Z,1.30
2022-09-03T15:18:15.532Z,1.67
2022-09-03T15:20:52.530Z,1.50
2022-09-03T15:23:48.057Z,1.48
2022-09-03T15:26:25.601Z,1.60
2022-09-03T15:29:11.563Z,1.50
2022-09-03T15:32:09.791Z,1.48
2022-09-03T15:35:06.006Z,1.70
2022-09-03T15:37:47.998Z,1.50
2022-09-03T15:40:29.325Z,1.45
2022-09-03T15:43:04.499Z,1.63
2022-09-03T15:45:35.048Z,1.90
2022-09-03T15:48:27.031Z,1.77
2022-09-03T15:51:10.042Z,1.85
2022-09-03T15:54:03.410Z,1.75
2022-09-03T15:56:49.263Z,1.60
2022-09-03T15:59:25.423Z,1.73
2022-09-03T16:01:57.837Z,1.50
2022-09-03T16:04:54.660Z,1.80
2022-09-03T16:07:42.302Z,1.80
2022-09-03T16:10:25.006Z,1.58
2022-09-03T16:13:14.684Z,2.33
2022-09-03T16:16:05.069Z,1.70
2022-09-03T16:18:39.965Z,1.45
2022-09-03T16:21:23.202Z,1.60
2022-09-03T16:24:02.246Z,1.60
2022-09-03T16:26:38.214Z,1.40
2022-09-03T16:29:13.404Z,1.48
2022-09-03T16:32:07.295Z,1.50
2022-09-03T16:34:40.666Z,1.40
2022-09-03T16:37:14.026Z,1.70
2022-09-03T16:40:10.844Z,1.70
2022-09-03T16:42:40.395Z,1.70
2022-09-03T16:45:27.281Z,1.80
2022-09-03T16:48:32.499Z,1.52
2022-09-03T16:51:27.060Z,1.70
2022-09-03T16:54:09.153Z,1.50
2022-09-03T16:57:00.471Z,1.70
2022-09-03T17:00:00.570Z,2.20
2022-09-03T17:03:14.905Z,1.75
2022-09-03T17:06:20.611Z,1.85
2022-09-03T17:09:18.530Z,1.80
2022-09-03T17:12:08.361Z,1.70
2022-09-03T17:15:00.617Z,1.52
2022-09-03T17:17:37.697Z,1.63
2022-09-03T17:20:49.086Z,1.73
2022-09-03T17:23:36.479Z,1.80
2022-09-03T17:26:14.553Z,1.80
2022-09-03T17:28:56.225Z,1.77
2022-09-03T17:31:57.163Z,1.70
2022-09-03T17:34:51.854Z,1.55
2022-09-03T17:37:44.719Z,2.25
2022-09-03T17:40:47.707Z,2.00
2022-09-03T17:43:31.852Z,2.25
2022-09-03T17:46:24.294Z,1.75
2022-09-03T17:49:07.270Z,1.77
2022-09-03T17:51:46.233Z,1.88
2022-09-03T17:54:17.531Z,1.90
2022-09-03T17:57:13.615Z,1.58
2022-09-03T17:59:59.112Z,1.77
2022-09-03T18:02:37.293Z,1.50
2022-09-03T18:05:16.987Z,2.00
2022-09-03T18:08:00.649Z,1.60
2022-09-03T18:11:04.853Z,1.92
2022-09-03T18:13:45.542Z,1.90
2022-09-03T18:16:15.808Z,1.70
2022-09-03T18:18:52.012Z,1.65
2022-09-03T18:21:41.615Z,1.90
2022-09-03T18:24:51.192Z,2.03
2022-09-03T18:27:42.474Z,1.58
2022-09-03T18:30:33.789Z,1.77
2022-09-03T18:33:19.674Z,1.73
2022-09-03T18:36:05.942Z,1.88
2022-09-03T18:38:56.997Z,1.70
2022-09-03T18:41:42.570Z,1.75
2022-09-03T18:45:20.468Z,1.60
2022-09-03T18:48:20.699Z,1.65
2022-09-03T18:51:23.496Z,1.77
2022-09-03T18:54:40.583Z,1.80
2022-09-03T18:57:45.225Z,1.83
2022-09-03T19:00:34.574Z,1.83
2022-09-03T19:03:29.337Z,1.65
2022-09-03T19:06:34.604Z,2.05
2022-09-03T19:09:54.408Z,1.90
2022-09-03T19:13:05.194Z,1.95
2022-09-03T19:16:20.442Z,1.95
2022-09-03T19:19:27.716Z,1.80
2022-09-03T19:22:27.942Z,1.77
2022-09-03T19:25:22.107Z,1.75
2022-09-03T19:28:22.565Z,1.85
2022-09-03T19:31:55.769Z,2.20
2022-09-03T19:35:10.887Z,1.90
2022-09-03T19:38:04.926Z,2.10
2022-09-03T19:41:14.357Z,2.20
2022-09-03T19:44:28.041Z,1.90
2022-09-03T19:47:17.535Z,1.90
2022-09-03T19:50:32.984Z,1.75
2022-09-03T19:53:21.813Z,2.03
2022-09-03T19:56:12.981Z,1.95
2022-09-03T19:59:06.839Z,1.70
2022-09-03T20:01:54.709Z,1.80
2022-09-03T20:04:46.407Z,1.75
2022-09-03T20:07:31.596Z,1.83
2022-09-03T20:10:22.437Z,1.80
2022-09-03T20:13:00.487Z,1.95
2022-09-03T20:15:47.205Z,2.33
2022-09-03T20:18:27.697Z,1.85
2022-09-03T20:21:24.842Z,2.00
2022-09-03T20:24:00.261Z,1.90
2022-09-03T20:26:45.730Z,2.25
2022-09-03T20:29:37.182Z,1.95
2022-09-03T20:32:41.703Z,2.03
2022-09-03T20:35:42.035Z,2.10
2022-09-03T20:38:22.044Z,2.00
2022-09-03T20:41:24.213Z,2.30
2022-09-03T20:44:28.611Z,2.20
2022-09-03T20:47:21.309Z,2.35
2022-09-03T20:50:04.174Z,1.90
2022-09-03T20:52:50.381Z,2.17
2022-09-03T20:55:23.661Z,2.08
2022-09-03T20:58:10.788Z,2.03
2022-09-03T21:00:57.856Z,2.00
2022-09-03T21:03:46.488Z,2.15
2022-09-03T21:06:20.303Z,2.33
2022-09-03T21:09:03.079Z,2.22
2022-09-03T21:12:01.039Z,2.22
2022-09-03T21:17:19.797Z,4.70
2022-09-03T21:20:20.650Z,5.68
2022-09-03T21:23:13.849Z,4.18
2022-09-03T21:25:47.066Z,2.50
2022-09-03T21:28:33.532Z,2.28
2022-09-03T21:31:07.486Z,2.75
2022-09-03T21:33:38.914Z,2.20
2022-09-03T21:36:35.870Z,2.47
2022-09-03T21:39:14.641Z,2.30
2022-09-03T21:41:57.599Z,2.55
2022-09-03T21:44:39.448Z,2.80
2022-09-03T21:47:13.125Z,2.63
2022-09-03T21:49:58.885Z,2.15
2022-09-03T21:52:33.629Z,2.45
2022-09-03T21:55:00.326Z,2.22
2022-09-03T21:57:34.446Z,3.28
2022-09-03T22:00:19.022Z,2.50
2022-09-03T22:02:47.094Z,2.65
2022-09-03T22:05:15.647Z,2.42
2022-09-03T22:07:56.422Z,2.22
2022-09-03T22:10:46.862Z,2.40
2022-09-03T22:14:05.317Z,2.50
2022-09-03T22:16:51.086Z,2.15
2022-09-03T22:19:17.839Z,2.67
2022-09-03T22:21:59.535Z,2.45
2022-09-03T22:24:55.152Z,2.20
2022-09-03T22:27:30.464Z,2.15
2022-09-03T22:30:11.542Z,2.42
2022-09-03T22:32:45.593Z,2.53
2022-09-03T22:35:19.901Z,2.30
2022-09-03T22:37:55.575Z,2.30
2022-09-03T22:40:49.129Z,2.10
2022-09-03T22:43:39.515Z,2.37
2022-09-03T22:46:10.037Z,2.35
2022-09-03T22:48:55.602Z,2.58
2022-09-03T22:51:22.778Z,2.58
2022-09-03T22:53:55.201Z,2.40
2022-09-03T22:56:22.429Z,2.28
2022-09-03T22:59:04.711Z,2.55
2022-09-03T23:01:39.072Z,2.20
2022-09-03T23:04:18.857Z,2.60
2022-09-03T23:07:18.656Z,2.60
2022-09-03T23:10:08.932Z,2.38
2022-09-03T23:12:46.880Z,2.42
2022-09-03T23:15:23.132Z,2.33
2022-09-03T23:18:18.054Z,2.50
2022-09-03T23:20:58.696Z,2.33
2022-09-03T23:23:31.750Z,2.25
2022-09-03T23:26:12.256Z,2.42
2022-09-03T23:28:45.259Z,2.58
2022-09-03T23:31:26.989Z,2.78
2022-09-03T23:33:54.723Z,2.83
2022-09-03T23:36:57.980Z,2.15
2022-09-03T23:39:50.755Z,2.22
2022-09-03T23:42:38.985Z,2.55
2022-09-03T23:45:15.905Z,2.63
2022-09-03T23:48:04.949Z,2.75
2022-09-03T23:50:44.948Z,2.58
2022-09-03T23:53:46.718Z,2.60
2022-09-03T23:56:45.303Z,2.38
2022-09-03T23:59:36.698Z,2.30
